Time;durP1;ratioP1;P1;durP2;ratioP2;P2;SDS_P1;SDS_P2;PMS_P1;PMS_P2;Temp;Humidity;BMP_temperature;BMP_pressure;BME280_temperature;BME280_humidity;BME280_pressure;Samples;Min_cycle;Max_cycle;Signal;HPM_P1;HPM_P2
2020/12/18 00:01:09;;;;;;;12.98;4.45;;;;;;;5.32;95.82;102003.41;6322585;28;20108;-71
2020/12/18 00:04:10;;;;;;;10.20;3.72;;;;;;;5.37;95.84;102006.81;6323091;28;20728;-71
2020/12/18 00:07:10;;;;;;;14.73;4.28;;;;;;;5.33;96.28;102008.56;6322417;28;20052;-71
2020/12/18 00:10:12;;;;;;;11.60;4.43;;;;;;;5.34;95.81;102005.09;6322415;28;20113;-71
2020/12/18 00:13:13;;;;;;;9.20;3.85;;;;;;;5.42;96.03;102006.75;6322468;28;20055;-71
2020/12/18 00:16:14;;;;;;;9.80;4.00;;;;;;;5.49;95.90;102009.25;6322679;28;20044;-71
2020/12/18 00:19:14;;;;;;;14.70;5.22;;;;;;;5.56;96.07;102004.84;6322020;28;20048;-71
2020/12/18 00:22:15;;;;;;;11.30;4.32;;;;;;;5.58;95.14;101996.09;6320890;28;20051;-71
2020/12/18 00:25:17;;;;;;;8.32;4.43;;;;;;;5.66;93.97;101997.75;6322494;28;20055;-71
2020/12/18 00:28:18;;;;;;;7.70;4.03;;;;;;;5.67;94.02;101996.88;6321678;28;20409;-71
2020/12/18 00:31:18;;;;;;;8.90;4.47;;;;;;;5.69;93.80;101998.59;6321820;28;20052;-71
2020/12/18 00:34:19;;;;;;;10.75;4.40;;;;;;;5.65;93.65;101998.66;6322523;28;20055;-71
2020/12/18 00:37:20;;;;;;;8.38;4.18;;;;;;;5.63;92.70;102000.41;6322003;28;20048;-71
2020/12/18 00:40:22;;;;;;;12.18;4.63;;;;;;;5.54;92.81;101996.16;6321723;28;20136;-71
2020/12/18 00:43:23;;;;;;;11.10;4.38;;;;;;;5.50;93.17;101999.72;6322161;28;20093;-71
2020/12/18 00:46:23;;;;;;;16.35;4.70;;;;;;;5.53;93.16;102007.47;6321592;28;20052;-71
2020/12/18 00:49:24;;;;;;;10.93;4.43;;;;;;;5.47;92.96;102002.34;6321593;28;20565;-71
2020/12/18 00:52:25;;;;;;;12.15;5.10;;;;;;;5.50;92.98;101994.50;6321119;28;20052;-71
2020/12/18 00:55:27;;;;;;;12.13;5.70;;;;;;;5.37;93.43;102009.41;6321079;28;20048;-71
2020/12/18 00:58:28;;;;;;;13.95;4.85;;;;;;;5.38;93.98;102007.66;6321542;28;20117;-71
2020/12/18 01:01:29;;;;;;;10.32;4.60;;;;;;;5.27;94.05;102002.59;6321361;28;20048;-71
2020/12/18 01:04:29;;;;;;;14.23;5.05;;;;;;;5.19;94.41;101997.44;6321775;28;20101;-71
2020/12/18 01:07:30;;;;;;;12.15;5.28;;;;;;;5.17;94.14;102007.00;6321281;28;20529;-71
2020/12/18 01:10:32;;;;;;;9.50;4.53;;;;;;;5.09;94.53;102004.50;6321209;28;20420;-71
2020/12/18 01:13:33;;;;;;;9.93;4.85;;;;;;;5.15;94.39;101998.34;6321377;28;20077;-71
2020/12/18 01:16:34;;;;;;;8.65;4.95;;;;;;;5.28;94.03;102009.53;6321187;28;20044;-71
2020/12/18 01:19:36;;;;;;;9.43;4.97;;;;;;;5.23;94.14;102000.88;6320902;28;20488;-72
2020/12/18 01:22:37;;;;;;;11.48;4.75;;;;;;;5.26;93.83;102011.25;6320461;28;20142;-71
2020/12/18 01:25:38;;;;;;;7.97;4.35;;;;;;;5.37;92.86;102016.38;6321328;28;20511;-71
2020/12/18 01:28:39;;;;;;;8.10;4.50;;;;;;;5.18;93.39;102015.69;6320671;28;20101;-71
2020/12/18 01:31:40;;;;;;;11.23;4.68;;;;;;;5.18;93.40;102019.19;6321081;28;20048;-71
2020/12/18 01:34:43;;;;;;;12.35;4.72;;;;;;;5.17;93.58;102020.03;6321060;28;20055;-71
2020/12/18 01:37:44;;;;;;;11.13;4.47;;;;;;;5.08;94.21;102028.81;6320801;28;20040;-71
2020/12/18 01:40:46;;;;;;;11.27;4.70;;;;;;;5.01;94.68;102029.75;6320627;28;20048;-71
2020/12/18 01:43:47;;;;;;;12.50;4.80;;;;;;;4.94;94.93;102025.47;6320873;28;20526;-71
2020/12/18 01:46:48;;;;;;;9.57;4.75;;;;;;;4.98;94.94;102029.78;6320629;28;20110;-71
2020/12/18 01:49:48;;;;;;;8.82;4.50;;;;;;;4.94;95.48;102035.03;6320590;28;20051;-71
2020/12/18 01:52:50;;;;;;;9.20;4.13;;;;;;;4.99;94.86;102043.66;6319402;28;20051;-71
2020/12/18 01:55:53;;;;;;;8.57;4.20;;;;;;;4.97;95.85;102048.03;6320697;28;20051;-71
2020/12/18 01:58:54;;;;;;;15.05;4.22;;;;;;;4.95;96.24;102042.84;6320570;28;20071;-71
2020/12/18 02:01:55;;;;;;;10.40;5.25;;;;;;;5.00;96.28;102048.88;6320042;28;20103;-71
2020/12/18 02:04:56;;;;;;;14.45;4.40;;;;;;;5.03;95.60;102040.16;6320835;28;20464;-71
2020/12/18 02:08:02;;;;;;;15.45;4.57;;;;;;;5.02;95.92;102041.91;6320797;28;20040;-71
2020/12/18 02:11:04;;;;;;;12.77;4.50;;;;;;;5.01;95.99;102042.78;6320322;28;20564;-71
2020/12/18 02:14:12;;;;;;;8.93;3.92;;;;;;;4.99;95.49;102033.25;6320509;28;20497;-71
2020/12/18 02:17:13;;;;;;;10.88;4.43;;;;;;;4.95;95.42;102035.03;6320614;28;20040;-71
2020/12/18 02:20:15;;;;;;;20.65;4.85;;;;;;;4.94;96.10;102037.66;6319420;28;20055;-71
2020/12/18 02:23:16;;;;;;;13.77;4.10;;;;;;;4.96;96.41;102039.38;6324997;28;20519;-71
2020/12/18 02:26:18;;;;;;;9.73;3.72;;;;;;;4.90;96.03;102031.59;6324939;28;20052;-71
2020/12/18 02:29:19;;;;;;;12.35;4.43;;;;;;;4.78;96.15;102031.72;6325134;28;20105;-71
2020/12/18 02:32:21;;;;;;;13.18;4.57;;;;;;;4.80;96.08;102032.56;6325030;28;20545;-71
2020/12/18 02:35:22;;;;;;;9.27;4.22;;;;;;;4.83;96.04;102033.41;6325547;28;20094;-71
2020/12/18 02:38:23;;;;;;;8.15;3.92;;;;;;;4.78;96.33;102035.19;6324730;28;20435;-71
2020/12/18 02:41:25;;;;;;;13.30;4.20;;;;;;;4.72;96.63;102040.44;6324898;28;20400;-71
2020/12/18 02:44:25;;;;;;;11.82;4.35;;;;;;;4.70;96.38;102029.16;6324946;28;20093;-71
2020/12/18 02:47:26;;;;;;;10.30;4.38;;;;;;;4.71;96.25;102037.84;6324476;28;20039;-71
2020/12/18 02:50:27;;;;;;;9.70;4.10;;;;;;;4.69;96.62;102037.00;6323702;28;20093;-71
2020/12/18 02:53:28;;;;;;;13.52;4.40;;;;;;;4.66;96.72;102030.06;6324697;28;20416;-71
2020/12/18 02:56:29;;;;;;;13.13;4.20;;;;;;;4.62;97.01;102037.91;6324466;28;20424;-71
2020/12/18 02:59:30;;;;;;;11.95;3.78;;;;;;;4.60;96.64;102030.13;6324135;28;20055;-71
2020/12/18 03:02:31;;;;;;;11.55;4.15;;;;;;;4.58;96.80;102029.25;6324455;28;20048;-71
2020/12/18 03:05:32;;;;;;;11.10;4.53;;;;;;;4.52;97.02;102032.78;6323350;28;20048;-71
2020/12/18 03:08:33;;;;;;;10.32;3.70;;;;;;;4.43;97.44;102024.19;6324044;28;20059;-71
2020/12/18 03:11:35;;;;;;;14.02;4.55;;;;;;;4.38;97.88;102036.38;6324036;28;20048;-71
2020/12/18 03:14:36;;;;;;;10.15;4.20;;;;;;;4.41;98.01;102033.75;6323991;28;20082;-71
2020/12/18 03:17:39;;;;;;;12.55;4.55;;;;;;;4.33;98.30;102032.06;6324012;28;20048;-71
2020/12/18 03:23:49;;;;;;;14.32;5.00;;;;;;;4.33;98.69;102024.25;6296029;28;20056;-67
2020/12/18 03:26:50;;;;;;;10.50;4.70;;;;;;;4.35;98.41;102029.44;6298510;28;20065;-67
2020/12/18 03:29:51;;;;;;;9.88;4.78;;;;;;;4.31;98.56;102031.22;6297947;28;20504;-68
2020/12/18 03:32:52;;;;;;;9.70;5.28;;;;;;;4.27;98.89;102033.81;6297271;28;20044;-67
2020/12/18 03:35:54;;;;;;;10.20;5.40;;;;;;;4.24;98.79;102032.13;6297577;28;20048;-67
2020/12/18 03:38:55;;;;;;;11.57;5.70;;;;;;;4.28;99.14;102025.16;6298150;28;20762;-67
2020/12/18 03:41:56;;;;;;;12.45;4.97;;;;;;;4.36;99.34;102027.69;6298427;28;20135;-67
2020/12/18 03:44:57;;;;;;;16.33;5.53;;;;;;;4.41;99.55;102020.75;6298493;28;20052;-68
2020/12/18 03:47:58;;;;;;;16.08;5.60;;;;;;;4.45;99.50;102025.91;6297930;28;20109;-67
2020/12/18 03:50:59;;;;;;;15.57;6.13;;;;;;;4.43;99.44;102026.78;6297821;28;20110;-67
2020/12/18 03:53:59;;;;;;;14.10;5.78;;;;;;;4.50;99.80;102034.56;6297471;28;20442;-67
2020/12/18 03:57:02;;;;;;;9.25;5.05;;;;;;;4.59;99.62;102028.41;6284694;28;20091;-67
2020/12/18 04:00:05;;;;;;;16.25;5.47;;;;;;;4.61;99.11;102034.47;6286639;28;20048;-67
2020/12/18 04:03:06;;;;;;;11.50;5.38;;;;;;;4.57;99.06;102030.16;6273004;28;20057;-67
2020/12/18 04:06:06;;;;;;;10.52;5.05;;;;;;;4.50;99.27;102041.50;6272796;28;20103;-67
2020/12/18 04:09:07;;;;;;;11.25;4.97;;;;;;;4.51;99.55;102040.63;6272555;28;20056;-67
2020/12/18 04:12:10;;;;;;;11.82;5.70;;;;;;;4.49;99.42;102051.03;6272715;28;20060;-67
2020/12/18 04:15:11;;;;;;;17.63;5.78;;;;;;;4.53;99.58;102041.47;6272739;28;20053;-67
2020/12/18 04:18:12;;;;;;;16.88;6.30;;;;;;;4.43;99.41;102039.81;6283922;28;20091;-67
2020/12/18 04:21:13;;;;;;;11.43;5.07;;;;;;;4.46;99.30;102040.66;6247509;28;20541;-67
2020/12/18 04:24:14;;;;;;;17.70;5.68;;;;;;;4.43;99.45;102035.47;6248080;28;20049;-67
2020/12/18 04:27:16;;;;;;;17.38;5.53;;;;;;;4.43;99.59;102038.06;6247403;28;20116;-67
2020/12/18 04:30:16;;;;;;;9.95;5.43;;;;;;;4.40;99.45;102040.69;6247316;28;20417;-67
2020/12/18 04:33:17;;;;;;;13.15;5.80;;;;;;;4.35;99.75;102037.25;6247611;28;20053;-67
2020/12/18 04:36:18;;;;;;;11.35;5.05;;;;;;;4.38;99.53;102034.63;6247488;28;20057;-67
2020/12/18 04:39:19;;;;;;;12.35;5.70;;;;;;;4.35;100.00;102039.84;6246929;28;20056;-67
2020/12/18 04:42:21;;;;;;;11.35;4.93;;;;;;;4.37;100.00;102040.72;6247562;28;20056;-67
2020/12/18 04:45:22;;;;;;;10.30;5.13;;;;;;;4.35;100.00;102036.38;6246973;28;20057;-67
2020/12/18 04:48:25;;;;;;;12.32;4.80;;;;;;;4.40;100.00;102042.41;6254935;28;20066;-67
2020/12/18 04:51:27;;;;;;;7.60;4.60;;;;;;;4.41;100.00;102032.00;6296211;28;20045;-67
2020/12/18 04:54:28;;;;;;;16.77;5.90;;;;;;;4.35;100.00;102029.44;6296681;28;20127;-67
2020/12/18 04:57:33;;;;;;;14.95;5.25;;;;;;;4.42;100.00;102022.47;6296167;28;20071;-67
2020/12/18 05:00:35;;;;;;;17.88;6.80;;;;;;;4.54;100.00;102030.16;6296115;28;20501;-67
2020/12/18 05:03:36;;;;;;;16.45;5.70;;;;;;;4.64;100.00;102017.97;6296547;28;20059;-67
2020/12/18 05:06:36;;;;;;;16.65;4.50;;;;;;;4.62;100.00;102017.94;6296147;28;20049;-67
2020/12/18 05:09:38;;;;;;;17.15;6.28;;;;;;;4.78;100.00;102023.91;6296144;28;20048;-67
2020/12/18 05:12:39;;;;;;;14.88;4.13;;;;;;;4.91;100.00;102022.06;6296253;28;20502;-67
2020/12/18 05:15:40;;;;;;;14.52;4.43;;;;;;;4.84;99.45;102024.69;6296403;28;20105;-67
2020/12/18 05:18:41;;;;;;;21.30;4.22;;;;;;;4.90;99.47;102013.34;6286933;28;20395;-67
2020/12/18 05:21:44;;;;;;;15.77;4.68;;;;;;;4.89;99.24;102022.06;6271288;28;20049;-67
2020/12/18 05:24:45;;;;;;;15.82;4.60;;;;;;;4.98;99.30;102019.38;6271468;28;20131;-67
2020/12/18 05:27:50;;;;;;;13.45;4.60;;;;;;;4.94;98.86;102020.25;6270553;28;20110;-67
2020/12/18 05:30:55;;;;;;;10.50;5.10;;;;;;;5.00;99.17;102020.22;6270769;28;20394;-67
2020/12/18 05:33:59;;;;;;;11.55;3.95;;;;;;;5.05;98.56;102018.44;6271013;28;20048;-67
2020/12/18 05:37:01;;;;;;;17.95;4.43;;;;;;;5.02;98.47;102017.59;6270833;28;20076;-67
2020/12/18 05:40:03;;;;;;;9.25;3.80;;;;;;;5.13;98.61;102014.88;6270635;28;20088;-67
2020/12/18 05:43:08;;;;;;;7.93;3.88;;;;;;;5.05;98.08;102009.75;6271100;28;20052;-67
2020/12/18 05:46:20;;;;;;;10.05;3.92;;;;;;;5.07;97.96;102016.66;6270712;28;20048;-67
2020/12/18 05:49:28;;;;;;;8.55;4.07;;;;;;;4.93;98.23;102023.75;6270787;28;20068;-67
2020/12/18 05:52:30;;;;;;;9.15;3.90;;;;;;;4.88;98.41;102019.47;6270803;28;20134;-67
2020/12/18 05:55:34;;;;;;;13.40;5.40;;;;;;;4.92;98.55;102018.56;6271267;28;20490;-67
2020/12/18 05:58:39;;;;;;;7.00;3.75;;;;;;;4.83;98.64;102027.34;6275417;28;20049;-67
2020/12/18 06:01:42;;;;;;;9.25;3.40;;;;;;;4.75;98.78;102016.97;6275875;28;20425;-67
2020/12/18 06:04:44;;;;;;;14.70;3.45;;;;;;;4.68;98.57;102022.25;6275894;28;20052;-67
2020/12/18 06:07:46;;;;;;;8.43;3.10;;;;;;;4.53;99.16;102025.84;6275586;28;20130;-67
2020/12/18 06:10:46;;;;;;;8.02;3.60;;;;;;;4.47;99.31;102038.91;6275197;28;20421;-67
2020/12/18 06:13:48;;;;;;;11.50;4.45;;;;;;;4.42;99.47;102027.66;6275870;28;20045;-67
2020/12/18 06:16:51;;;;;;;8.85;4.10;;;;;;;4.37;99.64;102026.84;6275487;28;20057;-66
2020/12/18 06:19:56;;;;;;;5.93;3.58;;;;;;;4.28;99.44;102031.22;6274299;28;20102;-66
2020/12/18 06:22:59;;;;;;;13.70;4.22;;;;;;;4.27;100.00;102026.00;6275403;28;20060;-67
2020/12/18 06:26:00;;;;;;;9.45;3.30;;;;;;;4.31;100.00;102019.91;6274929;28;20045;-66
2020/12/18 06:29:04;;;;;;;8.30;2.97;;;;;;;4.37;100.00;102022.50;6274966;28;20045;-66
2020/12/18 06:32:25;;;;;;;12.35;3.45;;;;;;;4.33;100.00;102019.06;6275061;28;20102;-66
2020/12/18 06:35:31;;;;;;;10.95;3.50;;;;;;;4.33;100.00;102024.25;6275365;28;20052;-67
2020/12/18 06:38:31;;;;;;;8.90;3.30;;;;;;;4.31;100.00;102025.13;6274748;28;20041;-67
2020/12/18 06:41:32;;;;;;;10.38;3.38;;;;;;;4.31;100.00;102025.13;6274367;28;20041;-67
2020/12/18 06:44:36;;;;;;;12.40;3.35;;;;;;;4.36;100.00;102025.09;6282571;28;20049;-67
2020/12/18 06:47:37;;;;;;;9.18;3.13;;;;;;;4.30;99.87;102031.22;6291577;28;20143;-67
2020/12/18 06:50:40;;;;;;;10.32;3.00;;;;;;;4.21;99.71;102023.47;6298925;28;20053;-67
2020/12/18 06:53:41;;;;;;;10.20;3.17;;;;;;;4.24;99.99;102019.13;6299748;28;20052;-67
2020/12/18 06:56:42;;;;;;;8.57;2.78;;;;;;;4.12;100.00;102015.72;6299018;28;20059;-67
2020/12/18 06:59:43;;;;;;;8.63;3.13;;;;;;;4.13;100.00;102004.44;6291365;28;20045;-67
2020/12/18 07:02:44;;;;;;;9.45;3.08;;;;;;;4.04;100.00;102007.94;6274287;28;20410;-67
2020/12/18 07:05:45;;;;;;;12.18;3.40;;;;;;;4.06;100.00;102016.63;6274352;28;20052;-67
2020/12/18 07:08:46;;;;;;;5.68;2.70;;;;;;;4.03;100.00;102016.63;6273594;28;20056;-66
2020/12/18 07:11:48;;;;;;;7.55;3.00;;;;;;;4.07;100.00;102015.75;6275233;28;20052;-67
2020/12/18 07:14:50;;;;;;;11.43;2.70;;;;;;;4.13;100.00;102012.25;6274286;28;20052;-67
2020/12/18 07:17:55;;;;;;;12.48;3.40;;;;;;;4.12;100.00;102007.91;6273539;28;20045;-67
2020/12/18 07:20:57;;;;;;;7.43;2.90;;;;;;;4.20;100.00;102013.94;6260386;28;20057;-67
2020/12/18 07:23:58;;;;;;;5.60;3.20;;;;;;;4.10;100.00;102017.47;6273398;28;20048;-67
2020/12/18 07:26:59;;;;;;;8.38;3.20;;;;;;;4.12;100.00;102013.13;6269829;28;20057;-69
2020/12/18 07:30:08;;;;;;;14.57;3.40;;;;;;;4.11;100.00;102019.19;6273432;28;20091;-70
2020/12/18 07:33:11;;;;;;;14.13;3.30;;;;;;;4.04;100.00;102020.97;6249149;28;20053;-70
2020/12/18 07:36:13;;;;;;;9.93;3.28;;;;;;;3.95;100.00;102018.41;6267032;28;20060;-69
2020/12/18 07:39:14;;;;;;;13.10;3.33;;;;;;;3.90;100.00;102022.78;6273239;28;20445;-69
2020/12/18 07:42:15;;;;;;;7.75;4.05;;;;;;;3.85;100.00;102021.94;6272561;28;20053;-70
2020/12/18 07:45:17;;;;;;;11.77;4.05;;;;;;;3.79;100.00;102013.31;6270454;28;20056;-70
2020/12/18 07:48:19;;;;;;;10.80;3.60;;;;;;;3.77;100.00;102022.84;6273122;28;20052;-69
2020/12/18 07:51:20;;;;;;;5.63;3.30;;;;;;;3.74;100.00;102016.81;6272701;28;20159;-70
2020/12/18 07:54:21;;;;;;;12.93;5.82;;;;;;;3.71;100.00;102014.19;6273323;28;20053;-68
2020/12/18 07:57:21;;;;;;;12.15;4.65;;;;;;;3.73;100.00;102022.88;6272852;28;20179;-68
2020/12/18 08:00:23;;;;;;;13.98;4.53;;;;;;;3.74;100.00;102019.41;6272738;28;20080;-69
2020/12/18 08:03:25;;;;;;;11.38;5.03;;;;;;;3.76;100.00;102015.03;6272729;28;20049;-68
2020/12/18 08:06:27;;;;;;;13.90;4.57;;;;;;;3.88;100.00;102021.94;6272959;28;20048;-69
2020/12/18 08:09:28;;;;;;;17.10;3.97;;;;;;;3.85;100.00;102017.59;6272339;28;20044;-67
2020/12/18 08:12:29;;;;;;;11.93;4.03;;;;;;;3.84;100.00;102025.41;6284296;28;20057;-68
2020/12/18 08:15:31;;;;;;;15.05;4.00;;;;;;;3.79;100.00;102015.03;6272897;28;20103;-68
2020/12/18 08:18:33;;;;;;;5.75;4.28;;;;;;;3.85;100.00;102015.00;6271820;28;20115;-67
2020/12/18 08:21:35;;;;;;;12.05;4.32;;;;;;;3.83;100.00;102018.50;6271814;28;20053;-68
2020/12/18 08:24:38;;;;;;;13.73;4.57;;;;;;;3.89;100.00;102013.25;6279786;28;20512;-68
2020/12/18 08:27:45;;;;;;;11.55;4.38;;;;;;;3.91;100.00;102014.13;6272266;28;20045;-68
2020/12/18 08:30:48;;;;;;;7.90;4.25;;;;;;;3.93;100.00;102010.63;6280001;28;20063;-69
2020/12/18 08:33:54;;;;;;;9.35;3.47;;;;;;;3.97;100.00;102011.47;6272621;28;20079;-69
2020/12/18 08:36:56;;;;;;;7.13;3.60;;;;;;;3.94;100.00;102014.94;6271852;28;20053;-68
2020/12/18 08:39:57;;;;;;;17.45;7.75;;;;;;;3.88;100.00;102012.41;6271920;28;20130;-68
2020/12/18 08:42:59;;;;;;;18.88;6.20;;;;;;;3.93;100.00;102026.22;6295652;28;20127;-68
2020/12/18 08:46:01;;;;;;;15.63;5.60;;;;;;;3.88;100.00;102019.34;6292477;28;20051;-70
2020/12/18 08:49:10;;;;;;;13.30;4.95;;;;;;;3.96;100.00;102026.22;6287958;28;20071;-68
2020/12/18 08:52:11;;;;;;;15.20;4.95;;;;;;;3.96;100.00;102025.38;6296848;28;20048;-67
2020/12/18 08:55:11;;;;;;;16.88;4.43;;;;;;;4.01;100.00;102021.00;6296410;28;20122;-67
2020/12/18 08:58:12;;;;;;;9.15;3.80;;;;;;;4.00;100.00;102025.34;6295917;28;20106;-67
2020/12/18 09:01:24;;;;;;;7.28;3.72;;;;;;;4.03;100.00;102022.69;6295947;28;20048;-68
2020/12/18 09:04:25;;;;;;;12.98;5.10;;;;;;;4.01;100.00;102016.66;6296382;28;20127;-68
2020/12/18 09:07:36;;;;;;;9.45;4.32;;;;;;;4.03;100.00;102008.84;6296005;28;20056;-67
2020/12/18 09:10:40;;;;;;;8.73;4.40;;;;;;;4.09;100.00;102019.22;6289059;28;20417;-67
2020/12/18 09:13:45;;;;;;;9.63;4.18;;;;;;;4.11;100.00;102025.25;6271042;28;20056;-67
2020/12/18 09:16:48;;;;;;;9.38;3.65;;;;;;;4.21;100.00;102024.31;6282222;28;20051;-68
2020/12/18 09:19:49;;;;;;;12.77;3.88;;;;;;;4.26;100.00;102027.75;6277526;28;20059;-67
2020/12/18 09:22:56;;;;;;;11.20;3.60;;;;;;;4.29;100.00;102024.28;6279610;28;20053;-67
2020/12/18 09:25:59;;;;;;;17.48;4.13;;;;;;;4.38;100.00;102019.00;6293320;28;20114;-68
2020/12/18 09:29:00;;;;;;;7.82;3.80;;;;;;;4.47;100.00;102012.88;6284995;28;20040;-68
2020/12/18 09:32:01;;;;;;;12.40;4.07;;;;;;;4.61;100.00;102000.63;6295031;28;20463;-68
2020/12/18 09:35:02;;;;;;;5.75;3.70;;;;;;;4.75;99.40;102005.69;6288490;28;20056;-65
2020/12/18 09:38:04;;;;;;;10.85;3.33;;;;;;;4.74;99.00;102012.66;6278167;28;20053;-63
2020/12/18 09:41:07;;;;;;;7.32;3.05;;;;;;;4.78;99.46;102008.28;6276997;28;20064;-69
2020/12/18 09:44:08;;;;;;;10.40;2.80;;;;;;;4.93;99.18;102008.13;6276778;28;20079;-69
2020/12/18 09:47:10;;;;;;;7.50;3.22;;;;;;;5.06;98.42;102003.66;6282074;28;20443;-69
2020/12/18 09:50:11;;;;;;;11.48;3.17;;;;;;;5.08;98.10;102005.34;6316972;22;20112;-71
2020/12/18 09:53:12;;;;;;;8.23;3.22;;;;;;;5.18;97.97;102008.75;6330379;28;20071;-71
2020/12/18 09:56:14;;;;;;;8.88;2.92;;;;;;;5.22;98.06;102014.78;6334661;28;20054;-71
2020/12/18 09:59:15;;;;;;;9.38;2.83;;;;;;;5.33;97.13;102025.97;6337781;28;20040;-73
2020/12/18 10:02:16;;;;;;;12.05;3.33;;;;;;;5.41;96.61;102023.28;6337051;28;20416;-72
2020/12/18 10:05:17;;;;;;;8.82;4.15;;;;;;;5.37;97.03;102024.19;6305724;28;20097;-72
2020/12/18 10:08:18;;;;;;;7.88;3.38;;;;;;;5.48;96.42;102017.09;6320461;28;20127;-72
2020/12/18 10:11:19;;;;;;;8.88;2.78;;;;;;;5.55;96.04;102016.16;6319513;28;20043;-72
2020/12/18 10:14:20;;;;;;;7.43;2.67;;;;;;;5.57;96.19;102017.84;6324456;28;20098;-72
2020/12/18 10:17:22;;;;;;;8.23;3.22;;;;;;;5.63;95.92;102011.69;6340409;28;20050;-72
2020/12/18 10:20:22;;;;;;;9.95;3.67;;;;;;;5.65;95.44;102009.94;6319328;28;20051;-72
2020/12/18 10:23:23;;;;;;;6.53;2.90;;;;;;;5.67;95.89;102015.13;6332460;28;20040;-72
2020/12/18 10:26:24;;;;;;;9.35;3.92;;;;;;;5.71;95.76;102017.69;6316119;28;20412;-70
2020/12/18 10:29:25;;;;;;;9.98;3.33;;;;;;;5.80;95.85;102016.69;6321115;28;20117;-72
2020/12/18 10:32:28;;;;;;;9.43;2.85;;;;;;;5.95;94.80;102020.88;6324678;28;20052;-72
2020/12/18 10:35:28;;;;;;;4.95;2.28;;;;;;;6.01;94.58;102012.97;6325278;28;20044;-72
2020/12/18 10:38:29;;;;;;;8.27;2.10;;;;;;;6.03;93.95;102013.81;6321091;28;20525;-70
2020/12/18 10:41:30;;;;;;;13.05;2.33;;;;;;;6.33;92.75;102012.50;6330806;28;20488;-71
2020/12/18 10:44:31;;;;;;;8.48;2.38;;;;;;;6.36;92.76;102004.63;6333142;28;20046;-71
2020/12/18 10:47:33;;;;;;;9.15;2.17;;;;;;;6.53;90.01;102004.34;6329736;28;20058;-71
2020/12/18 10:50:33;;;;;;;9.93;1.80;;;;;;;6.73;88.95;102006.63;6338978;28;20044;-72
2020/12/18 10:53:34;;;;;;;8.55;2.00;;;;;;;6.77;88.69;102005.72;6340148;28;20048;-71
2020/12/18 10:56:40;;;;;;;8.40;2.35;;;;;;;6.75;88.76;102000.47;6348424;28;20043;-72
2020/12/18 10:59:41;;;;;;;6.18;1.80;;;;;;;6.89;88.02;102002.00;6349464;28;20480;-72
2020/12/18 11:02:43;;;;;;;15.20;1.95;;;;;;;6.94;86.94;102005.38;6349733;28;20052;-72
2020/12/18 11:05:43;;;;;;;8.38;1.90;;;;;;;7.03;87.81;102007.81;6350046;28;20048;-71
2020/12/18 11:08:44;;;;;;;6.38;1.90;;;;;;;7.00;87.38;102014.00;6349031;28;20130;-72
2020/12/18 11:11:49;;;;;;;10.20;2.85;;;;;;;7.04;87.83;102018.28;6327169;28;20055;-72
2020/12/18 11:14:50;;;;;;;4.80;1.73;;;;;;;7.10;86.85;102006.84;6299037;28;20052;-72
2020/12/18 11:17:52;;;;;;;6.70;1.85;;;;;;;7.08;86.73;102001.63;6299047;28;20094;-72
2020/12/18 11:20:53;;;;;;;8.00;1.98;;;;;;;7.19;85.05;102000.59;6298656;28;20102;-72
2020/12/18 11:23:53;;;;;;;6.93;2.10;;;;;;;7.29;85.80;102002.97;6298918;28;20048;-72
2020/12/18 11:26:54;;;;;;;5.63;1.70;;;;;;;7.52;84.82;102002.50;6298658;28;20049;-71
2020/12/18 11:29:55;;;;;;;6.57;1.85;;;;;;;7.56;84.49;101995.47;6298184;28;20083;-71
2020/12/18 11:32:57;;;;;;;7.93;3.25;;;;;;;7.56;84.88;101996.34;6298582;28;20055;-71
2020/12/18 11:35:58;;;;;;;5.85;2.17;;;;;;;7.78;83.98;101985.41;6298349;28;20053;-72
2020/12/18 11:38:58;;;;;;;5.78;1.70;;;;;;;7.60;83.01;101984.06;6298289;28;20167;-72
2020/12/18 11:41:59;;;;;;;5.13;1.90;;;;;;;7.59;84.48;101984.97;6298509;28;20052;-72
2020/12/18 11:45:00;;;;;;;3.72;1.60;;;;;;;7.60;83.94;101984.06;6329364;28;20050;-72
2020/12/18 11:48:02;;;;;;;10.30;2.17;;;;;;;7.70;83.37;101974.25;6342343;28;20039;-72
2020/12/18 11:51:03;;;;;;;3.20;1.40;;;;;;;7.65;84.50;101971.72;6348127;28;20051;-72
2020/12/18 11:54:04;;;;;;;6.65;1.85;;;;;;;7.71;83.33;101963.75;6347832;28;20047;-71
2020/12/18 11:57:05;;;;;;;9.65;3.50;;;;;;;7.74;83.14;101976.75;6343593;28;20463;-72
2020/12/18 12:00:06;;;;;;;8.13;2.17;;;;;;;7.94;82.24;101972.84;6342621;28;20072;-71
2020/12/18 12:03:07;;;;;;;11.48;3.75;;;;;;;8.11;82.33;101968.06;6348371;28;20047;-71
2020/12/18 12:06:08;;;;;;;8.27;2.40;;;;;;;8.21;81.84;101963.47;6348312;28;20097;-72
2020/12/18 12:09:10;;;;;;;8.05;1.60;;;;;;;8.25;80.46;101968.59;6347683;28;20048;-71
2020/12/18 12:12:11;;;;;;;9.75;2.13;;;;;;;8.35;79.73;101975.34;6310701;28;20147;-72
2020/12/18 12:15:12;;;;;;;13.30;4.25;;;;;;;8.37;80.07;101970.97;6297481;28;20501;-72
2020/12/18 12:18:14;;;;;;;7.13;1.70;;;;;;;8.46;79.55;101971.66;6297388;28;20519;-72
2020/12/18 12:21:15;;;;;;;4.40;1.70;;;;;;;8.36;80.65;101974.50;6322214;28;20051;-71
2020/12/18 12:24:15;;;;;;;6.43;2.10;;;;;;;8.45;79.42;101968.19;6324854;28;20085;-72
2020/12/18 12:27:20;;;;;;;7.65;1.98;;;;;;;8.41;79.98;101960.44;6330425;28;20094;-72
2020/12/18 12:30:21;;;;;;;3.97;1.65;;;;;;;8.36;79.38;101956.16;6317003;28;20070;-72
2020/12/18 12:33:23;;;;;;;5.28;2.20;;;;;;;8.28;81.05;101951.97;6330579;28;20048;-72
2020/12/18 12:36:25;;;;;;;6.35;1.85;;;;;;;8.14;81.17;101961.03;6322004;28;20047;-72
2020/12/18 12:39:26;;;;;;;3.00;1.70;;;;;;;8.10;80.82;101959.38;6322052;28;20412;-72
2020/12/18 12:42:28;;;;;;;4.65;2.15;;;;;;;8.24;81.28;101950.31;6321601;28;20044;-72
2020/12/18 12:45:29;;;;;;;5.70;1.40;;;;;;;8.03;81.16;101955.16;6345267;28;20077;-71
2020/12/18 12:48:31;;;;;;;8.35;2.40;;;;;;;7.83;81.96;101944.31;6347184;28;20049;-72
2020/12/18 12:51:31;;;;;;;6.18;2.00;;;;;;;8.07;81.45;101940.25;6346480;28;20400;-72
2020/12/18 12:54:32;;;;;;;6.22;1.80;;;;;;;7.94;81.98;101949.28;6347480;28;20044;-72
2020/12/18 12:57:33;;;;;;;6.45;1.75;;;;;;;7.91;82.15;101942.38;6346620;28;20052;-72
2020/12/18 13:00:34;;;;;;;4.00;2.08;;;;;;;7.87;81.50;101943.34;6346237;28;20163;-72
2020/12/18 13:03:35;;;;;;;5.85;1.85;;;;;;;7.98;81.93;101935.22;6341646;28;20047;-72
2020/12/18 13:06:36;;;;;;;6.97;2.05;;;;;;;7.85;82.81;101932.03;6337961;28;20131;-72
2020/12/18 13:09:37;;;;;;;7.68;2.28;;;;;;;7.69;83.14;101935.91;6333715;28;20509;-72
2020/12/18 13:12:38;;;;;;;7.75;2.38;;;;;;;7.80;83.84;101924.28;6334036;28;20173;-71
2020/12/18 13:15:40;;;;;;;6.60;2.50;;;;;;;7.97;82.45;101917.81;6345737;28;20058;-72
2020/12/18 13:18:41;;;;;;;5.68;2.00;;;;;;;7.97;82.40;101910.81;6345945;28;20423;-73
2020/12/18 13:21:42;;;;;;;7.38;1.73;;;;;;;7.98;82.16;101915.16;6346728;28;20044;-73
2020/12/18 13:24:43;;;;;;;12.68;1.77;;;;;;;8.11;81.81;101913.09;6346066;28;20055;-73
2020/12/18 13:27:44;;;;;;;6.10;2.10;;;;;;;7.85;83.01;101918.94;6345560;28;20525;-72
2020/12/18 13:30:45;;;;;;;5.13;1.70;;;;;;;7.82;83.08;101904.19;6345947;28;20051;-73
2020/12/18 13:33:48;;;;;;;4.88;1.90;;;;;;;7.95;81.95;101902.16;6346354;28;20054;-72
2020/12/18 13:36:49;;;;;;;4.97;1.75;;;;;;;7.85;83.01;101890.16;6346240;28;20047;-73
2020/12/18 13:39:50;;;;;;;5.68;1.30;;;;;;;7.76;82.85;101893.84;6335823;28;20424;-73
2020/12/18 13:42:50;;;;;;;4.15;1.85;;;;;;;7.75;83.50;101893.88;6296162;28;20074;-73
2020/12/18 13:45:51;;;;;;;4.85;1.73;;;;;;;7.67;84.76;101891.44;6295748;28;20451;-72
2020/12/18 13:48:53;;;;;;;6.63;2.00;;;;;;;7.66;84.61;101891.50;6295618;28;20049;-73
2020/12/18 13:51:54;;;;;;;6.10;1.70;;;;;;;7.63;84.46;101881.97;6295739;28;20098;-73
2020/12/18 13:54:55;;;;;;;4.15;1.80;;;;;;;7.75;83.35;101876.44;6296131;28;20512;-72
2020/12/18 13:57:56;;;;;;;8.18;1.73;;;;;;;7.77;84.66;101876.41;6295375;28;20508;-73
2020/12/18 14:00:57;;;;;;;4.88;1.65;;;;;;;7.71;84.50;101872.16;6295522;28;20102;-73
2020/12/18 14:03:59;;;;;;;4.10;1.65;;;;;;;7.64;83.92;101873.22;6321249;28;20550;-71
2020/12/18 14:07:00;;;;;;;11.02;3.72;;;;;;;7.59;84.17;101870.72;6315013;28;20102;-72
2020/12/18 14:10:01;;;;;;;4.43;2.08;;;;;;;7.63;84.34;101880.22;6320941;28;20048;-71